createdAt,value
2018-02-15T00:01:56.742Z,11.33
2018-02-15T00:04:24.360Z,15.53
2018-02-15T00:06:52.024Z,11.57
2018-02-15T00:09:19.850Z,13.10
2018-02-15T00:11:47.706Z,10.70
2018-02-15T00:14:15.381Z,11.63
2018-02-15T00:16:43.758Z,10.77
2018-02-15T00:19:12.202Z,11.73
2018-02-15T00:21:39.815Z,12.93
2018-02-15T00:24:07.469Z,14.93
2018-02-15T00:26:35.523Z,11.73
2018-02-15T00:29:03.178Z,15.60
2018-02-15T00:31:31.626Z,12.40
2018-02-15T00:33:59.252Z,12.93
2018-02-15T00:36:26.963Z,12.30
2018-02-15T00:38:54.714Z,13.13
2018-02-15T00:41:22.367Z,12.97
2018-02-15T00:43:50.032Z,13.80
2018-02-15T00:46:18.450Z,13.70
2018-02-15T00:48:46.104Z,13.43
2018-02-15T00:51:14.633Z,13.07
2018-02-15T00:53:42.289Z,13.03
2018-02-15T00:56:09.926Z,13.63
2018-02-15T00:58:37.584Z,13.07
2018-02-15T01:01:05.236Z,14.20
2018-02-15T01:03:32.887Z,13.07
2018-02-15T01:06:01.406Z,14.33
2018-02-15T01:08:29.055Z,13.70
2018-02-15T01:10:56.702Z,13.50
2018-02-15T01:13:25.140Z,15.13
2018-02-15T01:15:52.831Z,14.70
2018-02-15T01:18:20.477Z,18.17
2018-02-15T01:20:48.131Z,15.00
2018-02-15T01:23:15.810Z,15.37
2018-02-15T01:25:43.495Z,16.30
2018-02-15T01:28:11.167Z,16.93
2018-02-15T01:30:38.788Z,15.77
2018-02-15T01:33:06.458Z,14.83
2018-02-15T01:35:34.308Z,14.30
2018-02-15T01:38:01.979Z,16.30
2018-02-15T01:40:29.640Z,16.63
2018-02-15T01:42:57.283Z,17.90
2018-02-15T01:45:24.963Z,20.60
2018-02-15T01:47:53.342Z,17.47
2018-02-15T01:50:21.044Z,19.37
2018-02-15T01:52:49.462Z,16.87
2018-02-15T01:55:17.055Z,18.23
2018-02-15T01:57:44.737Z,19.20
2018-02-15T02:00:12.385Z,18.47
2018-02-15T02:02:40.054Z,15.93
2018-02-15T02:05:07.726Z,18.17
2018-02-15T02:07:35.362Z,18.70
2018-02-15T02:10:03.063Z,19.30
2018-02-15T02:12:31.456Z,19.60
2018-02-15T02:14:59.911Z,19.40
2018-02-15T02:17:27.617Z,18.50
2018-02-15T02:19:56.026Z,18.50
2018-02-15T02:22:23.684Z,18.20
2018-02-15T02:24:51.327Z,20.50
2018-02-15T02:27:18.974Z,18.50
2018-02-15T02:29:48.234Z,16.40
2018-02-15T02:32:16.621Z,19.70
2018-02-15T02:34:44.279Z,20.50
2018-02-15T02:37:11.915Z,18.60
2018-02-15T02:39:39.548Z,19.53
2018-02-15T02:42:07.984Z,18.40
2018-02-15T02:44:35.621Z,17.97
2018-02-15T02:47:04.028Z,17.53
2018-02-15T02:49:31.709Z,18.93
2018-02-15T02:51:59.359Z,18.17
2018-02-15T02:54:27.776Z,18.63
2018-02-15T02:56:55.433Z,16.47
2018-02-15T02:59:23.823Z,20.07
2018-02-15T03:01:52.284Z,18.83
2018-02-15T03:04:19.967Z,18.23
2018-02-15T03:06:47.582Z,19.77
2018-02-15T03:09:15.255Z,18.30
2018-02-15T03:11:42.883Z,18.83
2018-02-15T03:14:10.604Z,18.93
2018-02-15T03:16:39.012Z,18.37
2018-02-15T03:19:06.640Z,19.80
2018-02-15T03:21:34.306Z,22.20
2018-02-15T03:24:01.968Z,19.20
2018-02-15T03:26:29.641Z,21.83
2018-02-15T03:28:57.824Z,21.30
2018-02-15T03:31:25.481Z,21.70
2018-02-15T03:33:53.138Z,24.33
2018-02-15T03:36:20.797Z,22.57
2018-02-15T03:38:49.237Z,21.87
2018-02-15T03:41:16.893Z,24.27
2018-02-15T03:43:44.530Z,21.80
2018-02-15T03:46:12.950Z,25.10
2018-02-15T03:48:40.586Z,22.63
2018-02-15T03:51:09.013Z,21.83
2018-02-15T03:53:36.670Z,23.23
2018-02-15T03:56:05.060Z,22.90
2018-02-15T03:58:33.483Z,23.30
2018-02-15T04:01:01.127Z,24.10
2018-02-15T04:03:29.563Z,23.17
2018-02-15T04:05:57.212Z,26.13
2018-02-15T04:14:29.528Z,23.53
2018-02-15T04:16:57.199Z,23.03
2018-02-15T04:19:24.838Z,24.97
2018-02-15T04:21:52.635Z,24.23
2018-02-15T04:24:20.280Z,23.97
2018-02-15T04:26:47.960Z,23.07
2018-02-15T04:29:34.939Z,23.80
2018-02-15T04:32:02.599Z,22.30
2018-02-15T04:34:30.291Z,24.10
2018-02-15T04:36:57.931Z,25.07
2018-02-15T04:39:26.331Z,25.47
2018-02-15T04:41:54.800Z,24.73
2018-02-15T04:44:22.495Z,25.27
2018-02-15T04:46:50.171Z,26.00
2018-02-15T04:49:17.835Z,25.17
2018-02-15T04:51:45.479Z,23.90
2018-02-15T04:54:13.143Z,22.40
2018-02-15T04:56:41.543Z,24.83
2018-02-15T04:59:09.240Z,23.77
2018-02-15T05:01:36.904Z,25.43
2018-02-15T05:04:04.631Z,23.80
2018-02-15T05:06:32.271Z,24.10
2018-02-15T05:08:59.953Z,24.73
2018-02-15T05:11:29.519Z,24.23
2018-02-15T05:13:57.185Z,22.17
2018-02-15T05:16:24.939Z,23.70
2018-02-15T05:18:53.357Z,24.20
2018-02-15T05:21:21.056Z,23.97
2018-02-15T05:23:48.703Z,22.47
2018-02-15T05:26:17.160Z,24.20
2018-02-15T05:28:44.851Z,23.50
2018-02-15T05:31:12.507Z,22.07
2018-02-15T05:33:40.218Z,21.53
2018-02-15T05:36:07.910Z,21.93
2018-02-15T05:38:35.617Z,23.33
2018-02-15T05:41:03.970Z,21.37
2018-02-15T05:43:31.654Z,21.90
2018-02-15T05:45:59.323Z,22.63
2018-02-15T05:48:27.824Z,22.23
2018-02-15T05:50:56.235Z,23.43
2018-02-15T05:53:24.710Z,21.53
2018-02-15T05:55:52.364Z,21.97
2018-02-15T05:58:20.040Z,22.03
2018-02-15T06:00:47.707Z,22.80
2018-02-15T06:03:17.093Z,23.70
2018-02-15T06:05:44.766Z,23.93
2018-02-15T06:08:12.703Z,22.73
2018-02-15T06:10:40.411Z,25.10
2018-02-15T06:13:08.129Z,22.43
2018-02-15T06:15:38.262Z,23.40
2018-02-15T06:18:06.683Z,24.13
2018-02-15T06:20:35.107Z,22.33
2018-02-15T06:23:02.818Z,25.13
2018-02-15T06:25:30.547Z,21.77
2018-02-15T06:27:58.249Z,20.60
2018-02-15T06:30:26.795Z,21.80
2018-02-15T06:32:54.483Z,23.20
2018-02-15T06:35:22.209Z,24.20
2018-02-15T06:37:49.926Z,24.40
2018-02-15T06:40:17.611Z,28.30
2018-02-15T06:42:46.268Z,21.70
2018-02-15T06:45:13.929Z,21.63
2018-02-15T06:47:41.609Z,22.47
2018-02-15T06:50:10.375Z,21.60
2018-02-15T06:58:41.029Z,23.00
2018-02-15T07:01:08.732Z,23.27
2018-02-15T07:03:36.404Z,23.50
2018-02-15T07:06:04.129Z,22.13
2018-02-15T07:08:31.770Z,21.63
2018-02-15T07:10:59.457Z,20.80
2018-02-15T07:13:27.178Z,20.93
2018-02-15T07:15:54.864Z,21.53
2018-02-15T07:18:22.936Z,20.60
2018-02-15T07:20:50.578Z,20.37
2018-02-15T07:23:20.406Z,21.60
2018-02-15T07:25:49.658Z,18.73
2018-02-15T07:28:17.381Z,20.67
2018-02-15T07:30:45.048Z,19.63
2018-02-15T07:33:12.709Z,22.00
2018-02-15T07:35:40.422Z,21.50
2018-02-15T07:38:08.131Z,19.77
2018-02-15T07:40:35.801Z,22.77
2018-02-15T07:43:05.235Z,21.17
2018-02-15T07:45:32.906Z,22.00
2018-02-15T07:48:01.412Z,21.63
2018-02-15T07:50:30.777Z,20.37
2018-02-15T07:52:58.508Z,19.60
2018-02-15T07:55:26.990Z,22.33
2018-02-15T07:57:54.720Z,19.27
2018-02-15T08:00:22.403Z,19.47
2018-02-15T08:02:50.111Z,20.93
2018-02-15T08:05:17.757Z,18.87
2018-02-15T08:07:45.481Z,20.97
2018-02-15T08:10:13.227Z,21.07
2018-02-15T08:12:40.881Z,18.57
2018-02-15T08:15:09.323Z,19.13
2018-02-15T08:17:37.000Z,18.23
2018-02-15T08:20:04.704Z,17.13
2018-02-15T08:22:32.362Z,15.77
2018-02-15T08:25:00.014Z,15.80
2018-02-15T08:27:28.013Z,17.53
2018-02-15T08:44:44.559Z,16.70
2018-02-15T08:47:12.239Z,14.57
2018-02-15T08:49:39.959Z,17.03
2018-02-15T08:52:07.596Z,16.47
2018-02-15T08:54:35.323Z,16.30
2018-02-15T08:57:03.017Z,17.30
2018-02-15T08:59:30.699Z,15.10
2018-02-15T09:01:58.471Z,15.77
2018-02-15T09:04:26.129Z,15.13
2018-02-15T09:06:53.820Z,14.20
2018-02-15T09:09:22.562Z,16.70
2018-02-15T09:11:50.476Z,14.97
2018-02-15T09:14:18.151Z,15.00
2018-02-15T09:16:45.843Z,14.80
2018-02-15T09:19:13.515Z,14.27
2018-02-15T09:21:41.195Z,14.70
2018-02-15T09:24:09.049Z,14.63
2018-02-15T09:26:37.499Z,14.83
2018-02-15T09:29:05.172Z,15.47
2018-02-15T09:31:32.901Z,11.80
2018-02-15T09:34:00.523Z,13.17
2018-02-15T09:36:28.968Z,13.93
2018-02-15T09:38:56.682Z,13.53
2018-02-15T09:41:24.367Z,15.23
2018-02-15T09:43:52.035Z,13.83
2018-02-15T09:46:19.676Z,12.87
2018-02-15T09:48:48.143Z,12.30
2018-02-15T09:51:15.795Z,12.17
2018-02-15T09:53:43.519Z,10.90
2018-02-15T09:56:11.194Z,11.27
2018-02-15T09:58:38.920Z,12.03
2018-02-15T10:01:06.628Z,11.43
2018-02-15T10:03:34.367Z,10.63
2018-02-15T10:06:02.036Z,11.13
2018-02-15T10:08:29.682Z,11.43
2018-02-15T10:10:58.244Z,10.93
2018-02-15T10:13:25.953Z,10.00
2018-02-15T10:15:54.742Z,9.00
2018-02-15T10:18:22.404Z,11.03
2018-02-15T10:20:50.067Z,10.50
2018-02-15T10:23:18.563Z,10.40
2018-02-15T10:25:46.223Z,9.47
2018-02-15T10:28:13.869Z,8.67
2018-02-15T10:30:44.638Z,10.50
2018-02-15T10:33:13.000Z,9.50
2018-02-15T10:35:40.688Z,10.27
2018-02-15T10:38:08.411Z,10.30
2018-02-15T10:40:36.830Z,9.57
2018-02-15T10:43:04.539Z,8.60
2018-02-15T10:45:32.180Z,9.00
2018-02-15T10:48:00.634Z,10.37
2018-02-15T10:50:29.070Z,8.60
2018-02-15T10:52:56.744Z,9.10
2018-02-15T10:55:24.428Z,7.23
2018-02-15T10:57:52.093Z,7.43
2018-02-15T11:00:19.952Z,6.70
2018-02-15T11:02:54.060Z,7.03
2018-02-15T11:05:27.444Z,7.33
2018-02-15T11:07:55.126Z,7.43
2018-02-15T11:10:22.743Z,7.00
2018-02-15T11:12:50.461Z,6.53
2018-02-15T11:15:18.133Z,7.87
2018-02-15T11:17:45.833Z,7.23
2018-02-15T11:20:13.487Z,9.07
2018-02-15T11:22:41.149Z,6.93
2018-02-15T11:25:08.836Z,6.87
2018-02-15T11:27:36.505Z,6.77
2018-02-15T11:30:05.013Z,6.07
2018-02-15T11:32:33.513Z,5.90
2018-02-15T11:35:03.074Z,7.60
2018-02-15T11:37:31.083Z,7.33
2018-02-15T11:39:59.155Z,6.30
2018-02-15T11:42:28.644Z,6.77
2018-02-15T11:44:56.366Z,6.27
2018-02-15T11:47:24.102Z,6.30
2018-02-15T11:49:51.780Z,9.23
2018-02-15T11:52:19.454Z,5.73
2018-02-15T11:54:47.343Z,6.07
2018-02-15T11:57:14.969Z,5.97
2018-02-15T11:59:42.635Z,5.50
2018-02-15T12:02:10.303Z,7.07
2018-02-15T12:04:38.712Z,7.20
2018-02-15T12:07:07.898Z,5.87
2018-02-15T12:09:35.565Z,6.43
2018-02-15T12:12:03.292Z,8.80
2018-02-15T12:14:30.935Z,6.93
2018-02-15T12:16:58.602Z,6.93
2018-02-15T12:19:26.419Z,6.30
2018-02-15T12:21:55.468Z,7.57
2018-02-15T12:24:36.577Z,7.50
2018-02-15T12:27:04.228Z,7.17
2018-02-15T12:29:31.852Z,7.50
2018-02-15T12:31:59.536Z,7.07
2018-02-15T12:34:27.171Z,7.73
2018-02-15T12:36:54.911Z,6.40
2018-02-15T12:39:22.592Z,10.47
2018-02-15T12:41:50.236Z,6.73
2018-02-15T12:44:17.871Z,6.13
2018-02-15T12:46:45.525Z,9.43
2018-02-15T12:49:13.212Z,6.30
2018-02-15T12:51:42.080Z,6.23
2018-02-15T12:54:09.697Z,6.80
2018-02-15T12:56:38.126Z,7.47
2018-02-15T12:59:07.105Z,6.63
2018-02-15T13:01:35.571Z,6.47
2018-02-15T13:04:03.233Z,6.50
2018-02-15T13:06:30.861Z,6.03
2018-02-15T13:08:59.774Z,6.20
2018-02-15T13:11:28.495Z,5.83
2018-02-15T13:13:56.151Z,5.33
2018-02-15T13:16:35.784Z,6.13
2018-02-15T13:19:16.044Z,7.60
2018-02-15T13:21:43.719Z,6.83
2018-02-15T13:24:12.527Z,5.90
2018-02-15T13:26:40.290Z,6.57
2018-02-15T13:29:10.622Z,6.77
2018-02-15T13:31:39.099Z,8.57
2018-02-15T13:34:06.798Z,5.43
2018-02-15T13:36:37.068Z,6.17
2018-02-15T13:39:04.839Z,7.17
2018-02-15T13:41:34.588Z,7.77
2018-02-15T13:44:03.052Z,6.87
2018-02-15T13:46:30.722Z,7.03
2018-02-15T13:48:58.335Z,7.27
2018-02-15T13:51:25.991Z,6.67
2018-02-15T13:53:53.955Z,6.30
2018-02-15T13:56:22.445Z,7.80
2018-02-15T13:58:51.240Z,11.57
2018-02-15T14:01:20.377Z,7.73
2018-02-15T14:03:48.054Z,7.93
2018-02-15T14:06:15.715Z,6.13
2018-02-15T14:08:43.530Z,6.23
2018-02-15T14:11:11.208Z,6.27
2018-02-15T14:13:40.419Z,6.73
2018-02-15T14:16:08.135Z,5.93
2018-02-15T14:18:35.803Z,7.87
2018-02-15T14:21:04.873Z,7.60
2018-02-15T14:23:32.876Z,7.30
2018-02-15T14:26:01.303Z,7.70
2018-02-15T14:28:30.545Z,6.63
2018-02-15T14:30:58.212Z,8.43
2018-02-15T14:33:26.630Z,7.00
2018-02-15T14:35:54.337Z,6.37
2018-02-15T14:38:24.459Z,7.33
2018-02-15T14:40:52.158Z,6.67
2018-02-15T14:43:19.840Z,7.23
2018-02-15T14:45:47.527Z,6.50
2018-02-15T14:48:16.722Z,8.27
2018-02-15T14:50:44.374Z,7.97
2018-02-15T14:53:12.081Z,8.87
2018-02-15T14:55:39.730Z,7.80
2018-02-15T14:58:07.391Z,7.50
2018-02-15T15:00:35.832Z,7.23
2018-02-15T15:03:05.344Z,7.53
2018-02-15T15:05:33.017Z,7.53
2018-02-15T15:08:01.418Z,7.07
2018-02-15T15:10:29.885Z,8.53
2018-02-15T15:12:57.566Z,8.73
2018-02-15T15:15:25.236Z,8.17
2018-02-15T15:17:52.933Z,8.90
2018-02-15T15:20:20.558Z,9.47
2018-02-15T15:22:48.289Z,7.60
2018-02-15T15:25:15.954Z,7.93
2018-02-15T15:27:46.053Z,8.13
2018-02-15T15:30:13.775Z,9.47
2018-02-15T15:32:41.416Z,8.13
2018-02-15T15:35:10.231Z,8.53
2018-02-15T15:37:37.919Z,8.77
2018-02-15T15:40:05.615Z,8.13
2018-02-15T15:42:33.303Z,8.60
2018-02-15T15:45:01.879Z,10.40
2018-02-15T15:47:30.636Z,8.93
2018-02-15T15:49:58.352Z,8.53
2018-02-15T15:52:26.008Z,11.00
2018-02-15T15:54:53.687Z,8.77
2018-02-15T15:57:21.389Z,8.90
2018-02-15T15:59:50.766Z,9.03
2018-02-15T16:02:20.122Z,9.40
2018-02-15T16:04:48.946Z,10.27
2018-02-15T16:07:16.616Z,9.00
2018-02-15T16:09:44.303Z,10.33
2018-02-15T16:12:11.979Z,9.07
2018-02-15T16:14:41.419Z,9.37
2018-02-15T16:17:09.090Z,8.80
2018-02-15T16:19:37.554Z,9.20
2018-02-15T16:22:05.620Z,10.07
2018-02-15T16:24:33.348Z,10.80
2018-02-15T16:27:02.895Z,10.67
2018-02-15T16:29:30.687Z,10.13
2018-02-15T16:31:59.773Z,9.20
2018-02-15T16:34:27.416Z,11.60
2018-02-15T16:36:58.864Z,10.90
2018-02-15T16:39:26.522Z,11.23
2018-02-15T16:41:54.192Z,10.33
2018-02-15T16:44:22.075Z,11.00
2018-02-15T16:46:49.819Z,10.53
2018-02-15T16:49:17.505Z,9.87
2018-02-15T16:52:08.716Z,10.47
2018-02-15T16:54:36.437Z,10.50
2018-02-15T16:57:04.885Z,10.37
2018-02-15T16:59:33.322Z,9.83
2018-02-15T17:02:00.983Z,10.60
2018-02-15T17:04:29.532Z,9.83
2018-02-15T17:06:57.226Z,10.93
2018-02-15T17:09:24.963Z,11.23
2018-02-15T17:11:52.566Z,12.40
2018-02-15T17:14:21.039Z,10.67
2018-02-15T17:16:48.657Z,12.23
2018-02-15T17:19:17.000Z,12.33
2018-02-15T17:21:46.148Z,11.00
2018-02-15T17:24:13.905Z,11.07
2018-02-15T17:26:41.698Z,11.70
2018-02-15T17:29:09.301Z,11.67
2018-02-15T17:31:37.395Z,11.97
2018-02-15T17:34:05.006Z,11.47
2018-02-15T17:36:32.614Z,12.03
2018-02-15T17:39:00.191Z,12.50
2018-02-15T17:41:27.877Z,14.25
2018-02-15T17:43:55.472Z,13.03
2018-02-15T17:46:24.131Z,16.13
2018-02-15T17:48:51.749Z,14.23
2018-02-15T17:51:19.323Z,13.73
2018-02-15T17:53:46.925Z,14.10
2018-02-15T17:56:14.510Z,12.90
2018-02-15T17:58:42.114Z,13.20
2018-02-15T18:01:09.690Z,14.33
2018-02-15T18:03:37.294Z,14.60
2018-02-15T18:06:04.903Z,14.10
2018-02-15T18:08:32.484Z,13.93
2018-02-15T18:11:00.546Z,13.63
2018-02-15T18:13:28.123Z,14.47
2018-02-15T18:15:55.735Z,14.50
2018-02-15T18:18:24.322Z,14.27
2018-02-15T18:20:52.315Z,14.33
2018-02-15T18:23:20.841Z,16.23
2018-02-15T18:25:49.455Z,15.00
2018-02-15T18:28:18.056Z,16.90
2018-02-15T18:30:45.815Z,15.00
2018-02-15T18:33:14.773Z,17.70
2018-02-15T18:35:42.384Z,17.80
2018-02-15T18:41:27.426Z,16.00
2018-02-15T18:43:56.367Z,16.90
2018-02-15T18:46:25.055Z,17.13
2018-02-15T18:48:52.867Z,15.83
2018-02-15T18:51:21.774Z,15.10
2018-02-15T18:53:49.516Z,16.23
2018-02-15T18:56:17.132Z,16.63
2018-02-15T18:58:45.260Z,17.07
2018-02-15T19:01:14.050Z,16.43
2018-02-15T19:03:42.573Z,16.03
2018-02-15T19:06:10.694Z,17.00
2018-02-15T19:08:38.555Z,16.67
2018-02-15T19:11:07.584Z,17.33
2018-02-15T19:13:35.583Z,17.73
2018-02-15T19:16:05.445Z,18.47
2018-02-15T19:18:33.746Z,17.77
2018-02-15T19:21:02.091Z,19.67
2018-02-15T19:23:30.215Z,17.83
2018-02-15T19:25:58.760Z,19.77
2018-02-15T19:28:26.455Z,17.77
2018-02-15T19:30:54.981Z,18.63
2018-02-15T19:33:23.098Z,19.27
2018-02-15T19:35:51.882Z,22.63
2018-02-15T19:38:20.583Z,18.67
2018-02-15T19:40:48.168Z,18.73
2018-02-15T19:43:16.159Z,18.70
2018-02-15T19:45:43.913Z,19.20
2018-02-15T19:48:20.052Z,20.40
2018-02-15T19:50:47.714Z,23.17
2018-02-15T19:53:16.095Z,19.87
2018-02-15T19:55:43.859Z,19.43
2018-02-15T19:58:11.508Z,20.27
2018-02-15T20:00:40.542Z,20.50
2018-02-15T20:03:09.551Z,19.93
2018-02-15T20:05:37.743Z,21.60
2018-02-15T20:08:06.197Z,21.90
2018-02-15T20:10:34.427Z,20.67
2018-02-15T20:13:04.173Z,21.23
2018-02-15T20:15:37.525Z,22.47
2018-02-15T20:18:05.149Z,21.97
2018-02-15T20:20:32.757Z,22.53
2018-02-15T20:23:00.334Z,22.70
2018-02-15T20:25:27.950Z,23.67
2018-02-15T20:28:02.855Z,22.27
2018-02-15T20:30:30.703Z,21.23
2018-02-15T20:32:59.772Z,23.13
2018-02-15T20:35:28.550Z,24.83
2018-02-15T20:38:04.667Z,23.47
2018-02-15T20:40:36.274Z,22.20
2018-02-15T20:43:04.034Z,23.47
2018-02-15T20:45:31.792Z,23.50
2018-02-15T20:47:59.629Z,26.20
2018-02-15T20:50:34.747Z,24.33
2018-02-15T20:53:24.758Z,24.87
2018-02-15T20:55:52.672Z,23.90
2018-02-15T20:58:20.657Z,25.33
2018-02-15T21:00:49.243Z,26.77
2018-02-15T21:03:18.246Z,24.97
2018-02-15T21:05:46.937Z,27.30
2018-02-15T21:08:16.036Z,24.87
2018-02-15T21:10:44.050Z,26.77
2018-02-15T21:13:11.786Z,25.43
2018-02-15T21:15:39.693Z,24.63
2018-02-15T21:18:07.545Z,24.97
2018-02-15T21:20:35.492Z,25.93
2018-02-15T21:23:03.632Z,27.50
2018-02-15T21:25:32.712Z,27.43
2018-02-15T21:28:00.598Z,27.07
2018-02-15T21:30:28.311Z,27.57
2018-02-15T21:32:56.547Z,29.60
2018-02-15T21:35:25.081Z,27.93
2018-02-15T21:37:54.865Z,28.33
2018-02-15T21:40:23.677Z,27.63
2018-02-15T21:42:52.405Z,29.13
2018-02-15T21:45:20.532Z,28.20
2018-02-15T21:47:50.292Z,30.53
2018-02-15T21:50:19.241Z,28.83
2018-02-15T21:52:47.016Z,28.80
2018-02-15T21:55:15.014Z,28.70
2018-02-15T21:57:43.306Z,29.27
2018-02-15T22:00:12.204Z,29.07
2018-02-15T22:02:40.792Z,32.23
2018-02-15T22:05:11.702Z,29.40
2018-02-15T22:07:40.277Z,27.93
2018-02-15T22:10:08.270Z,30.10
2018-02-15T22:12:36.307Z,30.20
2018-02-15T22:15:03.952Z,29.20
2018-02-15T22:17:31.622Z,28.83
2018-02-15T22:19:59.538Z,29.27
2018-02-15T22:22:27.691Z,29.50
2018-02-15T22:24:56.793Z,28.77
2018-02-15T22:27:25.463Z,29.10
2018-02-15T22:29:54.149Z,29.97
2018-02-15T22:32:22.520Z,31.00
2018-02-15T22:34:52.668Z,28.73
2018-02-15T22:37:20.728Z,30.13
2018-02-15T22:39:48.670Z,29.33
2018-02-15T22:42:16.312Z,29.93
2018-02-15T22:44:43.972Z,30.23
2018-02-15T22:47:11.614Z,28.63
2018-02-15T22:49:40.035Z,28.40
2018-02-15T22:52:07.669Z,27.80
2018-02-15T22:54:35.356Z,28.80
2018-02-15T22:57:03.012Z,29.03
2018-02-15T22:59:30.652Z,30.20
2018-02-15T23:01:59.063Z,30.30
2018-02-15T23:04:27.512Z,32.40
2018-02-15T23:06:55.451Z,32.77
2018-02-15T23:09:23.123Z,33.87
2018-02-15T23:11:50.756Z,30.90
2018-02-15T23:14:18.427Z,33.90
2018-02-15T23:16:46.799Z,33.27
2018-02-15T23:19:15.968Z,31.30
2018-02-15T23:21:44.413Z,34.90
2018-02-15T23:24:13.159Z,33.87
2018-02-15T23:26:40.839Z,35.13
2018-02-15T23:29:09.346Z,33.83
2018-02-15T23:31:37.216Z,33.73
2018-02-15T23:34:05.801Z,34.87
2018-02-15T23:36:34.747Z,35.10
2018-02-15T23:39:02.687Z,34.90
2018-02-15T23:41:30.323Z,35.67
2018-02-15T23:43:58.026Z,34.17
2018-02-15T23:46:25.890Z,37.03
2018-02-15T23:48:57.283Z,35.63
2018-02-15T23:51:24.937Z,34.13
2018-02-15T23:53:53.058Z,34.40
2018-02-15T23:56:21.281Z,32.40
2018-02-15T23:58:49.020Z,35.10
